createdAt,value
2018-07-31T00:00:15.448Z,99283.30
2018-07-31T00:02:43.992Z,99278.63
2018-07-31T00:05:12.633Z,99274.43
2018-07-31T00:07:41.172Z,99274.45
2018-07-31T00:10:09.776Z,99281.12
2018-07-31T00:12:38.312Z,99281.41
2018-07-31T00:15:09.301Z,99274.41
2018-07-31T00:17:37.892Z,99283.06
2018-07-31T00:20:06.520Z,99274.88
2018-07-31T00:22:35.083Z,99264.55
2018-07-31T00:25:03.817Z,99267.08
2018-07-31T00:27:32.396Z,99270.22
2018-07-31T00:30:00.974Z,99268.28
2018-07-31T00:32:29.817Z,99267.16
2018-07-31T00:34:58.645Z,99264.69
2018-07-31T00:37:27.163Z,99265.23
2018-07-31T00:39:56.088Z,99267.63
2018-07-31T00:42:24.592Z,99260.80
2018-07-31T00:44:53.161Z,99274.84
2018-07-31T00:47:21.675Z,99271.83
2018-07-31T00:49:50.207Z,99267.02
2018-07-31T00:52:19.437Z,99268.64
2018-07-31T00:54:48.011Z,99267.88
2018-07-31T00:57:16.508Z,99261.43
2018-07-31T00:59:45.056Z,99259.89
2018-07-31T01:02:13.595Z,99259.07
2018-07-31T01:04:42.197Z,99262.39
2018-07-31T01:07:10.707Z,99266.38
2018-07-31T01:09:39.268Z,99261.97
2018-07-31T01:12:07.836Z,99255.97
2018-07-31T01:14:36.400Z,99256.59
2018-07-31T01:17:05.060Z,99259.02
2018-07-31T01:19:33.634Z,99252.55
2018-07-31T01:22:02.176Z,99250.92
2018-07-31T01:24:30.739Z,99256.55
2018-07-31T01:26:59.268Z,99251.36
2018-07-31T01:29:27.835Z,99257.47
2018-07-31T01:31:56.418Z,99252.97
2018-07-31T01:34:24.965Z,99248.45
2018-07-31T01:36:53.532Z,99253.94
2018-07-31T01:39:22.061Z,99245.69
2018-07-31T01:41:51.920Z,99248.45
2018-07-31T01:44:20.456Z,99251.88
2018-07-31T01:46:49.000Z,99253.78
2018-07-31T01:49:17.497Z,99251.16
2018-07-31T01:51:46.031Z,99249.20
2018-07-31T01:54:14.529Z,99249.95
2018-07-31T01:56:43.123Z,99243.74
2018-07-31T01:59:11.620Z,99250.92
2018-07-31T02:01:40.152Z,99248.28
2018-07-31T02:04:08.648Z,99244.79
2018-07-31T02:06:37.208Z,99247.61
2018-07-31T02:09:07.677Z,99246.70
2018-07-31T02:11:36.265Z,99243.16
2018-07-31T02:14:04.829Z,99248.41
2018-07-31T02:16:33.344Z,99242.72
2018-07-31T02:19:01.927Z,99245.00
2018-07-31T02:21:30.452Z,99245.00
2018-07-31T02:23:58.964Z,99240.86
2018-07-31T02:26:27.484Z,99237.67
2018-07-31T02:28:56.034Z,99243.28
2018-07-31T02:31:24.563Z,99239.94
2018-07-31T02:33:53.204Z,99240.27
2018-07-31T02:36:21.869Z,99241.98
2018-07-31T02:38:50.391Z,99237.41
2018-07-31T02:41:18.996Z,99246.55
2018-07-31T02:43:47.550Z,99247.27
2018-07-31T02:46:16.183Z,99216.70
2018-07-31T02:48:44.733Z,99244.91
2018-07-31T02:51:13.331Z,99243.24
2018-07-31T02:53:41.860Z,99245.78
2018-07-31T02:56:10.445Z,99238.31
2018-07-31T02:58:39.000Z,99241.74
2018-07-31T03:01:07.605Z,99240.63
2018-07-31T03:03:36.160Z,99239.02
2018-07-31T03:06:04.757Z,99238.87
2018-07-31T03:08:33.305Z,99238.91
2018-07-31T03:11:01.867Z,99236.45
2018-07-31T03:13:30.392Z,99248.25
2018-07-31T03:15:58.949Z,99238.73
2018-07-31T03:18:27.489Z,99251.16
2018-07-31T03:20:56.083Z,99251.16
2018-07-31T03:23:24.608Z,99257.59
2018-07-31T03:25:53.172Z,99263.50
2018-07-31T03:28:22.141Z,99263.42
2018-07-31T03:30:50.692Z,99266.50
2018-07-31T03:33:19.324Z,99263.73
2018-07-31T03:35:47.852Z,99263.17
2018-07-31T03:38:16.412Z,99262.52
2018-07-31T03:40:44.965Z,99267.26
2018-07-31T03:43:13.568Z,99267.38
2018-07-31T03:45:42.312Z,99275.63
2018-07-31T03:48:10.985Z,99268.55
2018-07-31T03:50:39.560Z,99268.70
2018-07-31T03:53:08.136Z,99273.41
2018-07-31T03:55:36.744Z,99270.10
2018-07-31T03:58:05.348Z,99271.05
2018-07-31T04:00:33.889Z,99268.48
2018-07-31T04:03:02.492Z,99269.34
2018-07-31T04:05:31.128Z,99269.88
2018-07-31T04:07:59.661Z,99266.44
2018-07-31T04:10:28.197Z,99264.45
2018-07-31T04:12:56.768Z,99265.89
2018-07-31T04:15:25.309Z,99268.73
2018-07-31T04:17:57.008Z,99276.86
2018-07-31T04:20:26.168Z,99264.36
2018-07-31T04:22:54.783Z,99266.25
2018-07-31T04:25:23.737Z,99265.88
2018-07-31T04:27:52.844Z,99259.89
2018-07-31T04:30:21.385Z,99272.15
2018-07-31T04:32:49.944Z,99269.42
2018-07-31T04:35:18.522Z,99274.48
2018-07-31T04:37:47.123Z,99274.63
2018-07-31T04:40:22.100Z,99283.70
2018-07-31T04:42:50.719Z,99289.00
2018-07-31T04:45:19.257Z,99288.89
2018-07-31T04:47:47.825Z,99284.58
2018-07-31T04:50:16.366Z,99291.00
2018-07-31T04:52:50.005Z,99299.13
2018-07-31T04:55:19.148Z,99301.48
2018-07-31T04:57:47.712Z,99302.23
2018-07-31T05:00:16.281Z,99294.81
2018-07-31T05:02:44.848Z,99287.77
2018-07-31T05:05:13.385Z,99293.04
2018-07-31T05:07:42.112Z,99291.38
2018-07-31T05:10:13.015Z,99301.28
2018-07-31T05:12:42.940Z,99301.39
2018-07-31T05:15:11.641Z,99312.85
2018-07-31T05:17:40.587Z,99313.23
2018-07-31T05:20:10.489Z,99310.11
2018-07-31T05:22:39.845Z,99312.67
2018-07-31T05:25:08.574Z,99314.11
2018-07-31T05:27:37.309Z,99320.55
2018-07-31T05:30:07.832Z,99310.98
2018-07-31T05:32:36.653Z,99315.94
2018-07-31T05:35:05.637Z,99319.20
2018-07-31T05:37:34.170Z,99321.02
2018-07-31T05:40:02.732Z,99322.37
2018-07-31T05:42:31.327Z,99325.09
2018-07-31T05:45:00.687Z,99324.39
2018-07-31T05:47:29.195Z,99327.91
2018-07-31T05:49:57.745Z,99333.91
2018-07-31T05:52:26.248Z,99331.29
2018-07-31T05:54:54.780Z,99334.39
2018-07-31T05:57:24.370Z,99335.56
2018-07-31T05:59:52.887Z,99334.55
2018-07-31T06:02:21.382Z,99343.14
2018-07-31T06:04:49.928Z,99343.80
2018-07-31T06:07:18.440Z,99340.55
2018-07-31T06:09:46.960Z,99341.59
2018-07-31T06:12:15.449Z,99345.94
2018-07-31T06:14:43.984Z,99343.69
2018-07-31T06:17:12.550Z,99344.69
2018-07-31T06:19:41.076Z,99344.70
2018-07-31T06:22:09.556Z,99344.85
2018-07-31T06:24:38.101Z,99350.38
2018-07-31T06:27:06.656Z,99353.34
2018-07-31T06:29:35.259Z,99351.69
2018-07-31T06:32:03.764Z,99354.89
2018-07-31T06:34:32.288Z,99356.66
2018-07-31T06:37:00.816Z,99357.66
2018-07-31T06:39:29.338Z,99358.98
2018-07-31T06:41:57.821Z,99361.83
2018-07-31T06:44:26.390Z,99361.26
2018-07-31T06:46:55.277Z,99362.26
2018-07-31T06:49:23.862Z,99365.52
2018-07-31T06:51:52.335Z,99363.18
2018-07-31T06:54:20.869Z,99374.42
2018-07-31T06:56:49.394Z,99379.55
2018-07-31T06:59:17.912Z,99379.09
2018-07-31T07:01:46.412Z,99382.02
2018-07-31T07:04:14.940Z,99378.64
2018-07-31T07:06:43.460Z,99377.06
2018-07-31T07:09:12.660Z,99376.83
2018-07-31T07:11:41.236Z,99372.89
2018-07-31T07:14:09.760Z,99375.46
2018-07-31T07:16:38.409Z,99381.38
2018-07-31T07:19:06.948Z,99376.91
2018-07-31T07:21:35.457Z,99381.06
2018-07-31T07:24:04.017Z,99377.47
2018-07-31T07:26:32.505Z,99386.22
2018-07-31T07:29:01.021Z,99382.66
2018-07-31T07:31:29.632Z,99387.84
2018-07-31T07:33:58.241Z,99378.22
2018-07-31T07:36:26.674Z,99386.77
2018-07-31T07:38:55.412Z,99387.53
2018-07-31T07:41:25.609Z,99384.40
2018-07-31T07:43:54.540Z,99384.42
2018-07-31T07:46:23.108Z,99385.53
2018-07-31T07:48:51.624Z,99386.92
2018-07-31T07:51:20.190Z,99384.44
2018-07-31T07:53:48.727Z,99390.53
2018-07-31T07:56:20.898Z,99392.45
2018-07-31T07:58:49.430Z,99390.31
2018-07-31T08:01:17.996Z,99397.47
2018-07-31T08:03:46.553Z,99402.38
2018-07-31T08:06:15.180Z,99392.95
2018-07-31T08:08:43.703Z,99389.97
2018-07-31T08:11:12.268Z,99387.89
2018-07-31T08:13:40.789Z,99388.78
2018-07-31T08:16:09.382Z,99398.46
2018-07-31T08:18:37.920Z,99401.10
2018-07-31T08:21:06.500Z,99396.61
2018-07-31T08:23:35.112Z,99402.19
2018-07-31T08:26:03.691Z,99402.95
2018-07-31T08:28:32.227Z,99400.25
2018-07-31T08:31:00.784Z,99407.09
2018-07-31T08:33:31.529Z,99415.22
2018-07-31T08:36:00.108Z,99414.41
2018-07-31T08:38:28.716Z,99415.16
2018-07-31T08:40:57.316Z,99418.36
2018-07-31T08:43:26.602Z,99427.81
2018-07-31T08:45:56.257Z,99424.89
2018-07-31T08:48:24.731Z,99425.30
2018-07-31T08:50:53.256Z,99420.30
2018-07-31T08:53:21.772Z,99428.70
2018-07-31T08:55:50.325Z,99420.25
2018-07-31T08:58:18.818Z,99423.34
2018-07-31T09:00:47.849Z,99425.38
2018-07-31T09:03:16.406Z,99422.47
2018-07-31T09:05:46.695Z,99426.52
2018-07-31T09:08:17.276Z,99420.50
2018-07-31T09:10:45.817Z,99431.91
2018-07-31T09:13:14.864Z,99429.00
2018-07-31T09:15:43.369Z,99434.33
2018-07-31T09:18:12.094Z,99436.51
2018-07-31T09:20:40.717Z,99436.41
2018-07-31T09:23:09.241Z,99435.37
2018-07-31T09:25:42.989Z,99440.00
2018-07-31T09:28:14.341Z,99439.30
2018-07-31T09:30:48.245Z,99443.02
2018-07-31T09:33:16.769Z,99456.14
2018-07-31T09:35:45.295Z,99444.31
2018-07-31T09:38:13.824Z,99448.81
2018-07-31T09:40:42.360Z,99443.99
2018-07-31T09:43:11.268Z,99435.55
2018-07-31T09:45:39.918Z,99442.39
2018-07-31T09:48:08.447Z,99435.00
2018-07-31T09:50:37.422Z,99459.85
2018-07-31T09:53:06.264Z,99439.10
2018-07-31T09:55:34.880Z,99442.43
2018-07-31T09:58:03.824Z,99442.34
2018-07-31T10:00:37.601Z,99439.39
2018-07-31T10:03:06.416Z,99435.44
2018-07-31T10:05:36.077Z,99435.77
2018-07-31T10:08:04.611Z,99450.98
2018-07-31T10:10:33.280Z,99442.27
2018-07-31T10:13:02.133Z,99428.67
2018-07-31T10:15:32.399Z,99436.38
2018-07-31T10:18:01.652Z,99422.59
2018-07-31T10:20:31.278Z,99427.69
2018-07-31T10:23:00.860Z,99434.67
2018-07-31T10:25:31.223Z,99437.18
2018-07-31T10:28:00.890Z,99428.74
2018-07-31T10:30:30.741Z,99443.29
2018-07-31T10:33:00.385Z,99431.93
2018-07-31T10:35:29.573Z,99446.04
2018-07-31T10:37:58.136Z,99444.94
2018-07-31T10:40:26.669Z,99435.45
2018-07-31T10:42:55.610Z,99443.66
2018-07-31T10:45:24.251Z,99431.45
2018-07-31T10:47:52.818Z,99434.89
2018-07-31T10:50:21.548Z,99451.39
2018-07-31T10:52:50.921Z,99436.61
2018-07-31T10:55:19.556Z,99432.05
2018-07-31T10:57:48.108Z,99445.63
2018-07-31T11:00:16.936Z,99432.48
2018-07-31T11:02:45.647Z,99431.95
2018-07-31T11:05:14.233Z,99430.16
2018-07-31T11:07:42.840Z,99431.35
2018-07-31T11:10:11.361Z,99428.70
2018-07-31T11:12:39.933Z,99431.95
2018-07-31T11:15:08.569Z,99422.50
2018-07-31T11:17:37.225Z,99425.00
2018-07-31T11:20:06.036Z,99423.67
2018-07-31T11:22:34.875Z,99419.86
2018-07-31T11:25:03.800Z,99424.88
2018-07-31T11:27:32.390Z,99433.36
2018-07-31T11:30:00.940Z,99426.44
2018-07-31T11:32:29.503Z,99428.47
2018-07-31T11:34:58.113Z,99443.34
2018-07-31T11:37:26.747Z,99426.21
2018-07-31T11:39:55.561Z,99432.65
2018-07-31T11:42:24.092Z,99430.35
2018-07-31T11:44:54.420Z,99422.13
2018-07-31T11:47:23.222Z,99427.92
2018-07-31T11:49:52.537Z,99431.20
2018-07-31T11:52:21.001Z,99420.47
2018-07-31T11:54:51.467Z,99417.56
2018-07-31T11:57:19.957Z,99423.48
2018-07-31T11:59:48.532Z,99417.79
2018-07-31T12:02:17.041Z,99419.77
2018-07-31T12:04:45.604Z,99440.05
2018-07-31T12:07:14.088Z,99439.23
2018-07-31T12:09:42.660Z,99426.53
2018-07-31T12:12:11.477Z,99435.73
2018-07-31T12:14:40.096Z,99430.41
2018-07-31T12:17:09.556Z,99429.33
2018-07-31T12:19:38.956Z,99426.12
2018-07-31T12:22:08.632Z,99429.18
2018-07-31T12:24:38.387Z,99426.34
2018-07-31T12:27:08.384Z,99431.33
2018-07-31T12:29:37.287Z,99437.20
2018-07-31T12:32:07.451Z,99438.26
2018-07-31T12:34:38.427Z,99431.34
2018-07-31T12:37:14.796Z,99432.40
2018-07-31T12:39:44.104Z,99433.55
2018-07-31T12:42:13.136Z,99430.31
2018-07-31T12:44:42.352Z,99433.16
2018-07-31T12:47:13.517Z,99432.20
2018-07-31T12:49:42.801Z,99430.95
2018-07-31T12:52:11.336Z,99440.77
2018-07-31T12:54:42.184Z,99442.91
2018-07-31T12:57:14.287Z,99442.48
2018-07-31T12:59:44.436Z,99428.38
2018-07-31T13:02:15.821Z,99429.17
2018-07-31T13:04:45.099Z,99430.41
2018-07-31T13:07:14.942Z,99444.00
2018-07-31T13:09:44.940Z,99416.17
2018-07-31T13:12:13.946Z,99425.38
2018-07-31T13:14:48.678Z,99427.67
2018-07-31T13:17:18.769Z,99424.66
2018-07-31T13:19:47.605Z,99437.09
2018-07-31T13:22:16.099Z,99418.70
2018-07-31T13:24:44.801Z,99432.47
2018-07-31T13:27:13.883Z,99422.95
2018-07-31T13:29:42.398Z,99429.90
2018-07-31T13:32:10.933Z,99425.74
2018-07-31T13:34:39.737Z,99437.67
2018-07-31T13:37:08.724Z,99432.70
2018-07-31T13:39:37.233Z,99426.05
2018-07-31T13:42:05.979Z,99427.66
2018-07-31T13:44:34.585Z,99425.55
2018-07-31T13:47:03.488Z,99426.30
2018-07-31T13:49:32.775Z,99429.69
2018-07-31T13:52:01.257Z,99419.84
2018-07-31T13:54:29.843Z,99415.06
2018-07-31T13:56:58.533Z,99418.83
2018-07-31T13:59:27.316Z,99424.51
2018-07-31T14:01:56.389Z,99422.30
2018-07-31T14:04:25.279Z,99432.20
2018-07-31T14:06:53.956Z,99435.14
2018-07-31T14:09:23.865Z,99420.28
2018-07-31T14:11:52.740Z,99419.92
2018-07-31T14:14:21.364Z,99420.84
2018-07-31T14:16:49.965Z,99420.70
2018-07-31T14:19:18.503Z,99426.79
2018-07-31T14:21:47.056Z,99414.73
2018-07-31T14:24:15.606Z,99422.98
2018-07-31T14:26:44.476Z,99422.45
2018-07-31T14:29:13.000Z,99420.30
2018-07-31T14:31:41.561Z,99418.86
2018-07-31T14:34:10.650Z,99419.86
2018-07-31T14:36:40.408Z,99421.42
2018-07-31T14:39:10.765Z,99422.31
2018-07-31T14:41:40.367Z,99414.17
2018-07-31T14:44:09.936Z,99420.38
2018-07-31T14:46:38.525Z,99427.06
2018-07-31T14:49:08.300Z,99422.48
2018-07-31T14:51:36.854Z,99435.94
2018-07-31T14:54:05.471Z,99430.71
2018-07-31T14:56:34.481Z,99431.14
2018-07-31T14:59:03.248Z,99421.64
2018-07-31T15:01:35.887Z,99429.33
2018-07-31T15:04:05.480Z,99420.44
2018-07-31T15:06:34.604Z,99430.95
2018-07-31T15:09:03.441Z,99432.85
2018-07-31T15:11:32.069Z,99433.27
2018-07-31T15:14:00.558Z,99436.43
2018-07-31T15:16:33.986Z,99433.36
2018-07-31T15:19:03.754Z,99429.40
2018-07-31T15:21:32.594Z,99432.27
2018-07-31T15:24:02.371Z,99429.13
2018-07-31T15:26:42.029Z,99427.97
2018-07-31T15:29:10.710Z,99416.01
2018-07-31T15:31:40.340Z,99394.80
2018-07-31T15:34:09.934Z,99412.97
2018-07-31T15:36:38.617Z,99415.22
2018-07-31T15:39:09.884Z,99415.27
2018-07-31T15:41:39.133Z,99418.98
2018-07-31T15:44:07.829Z,99425.41
2018-07-31T15:46:36.433Z,99425.98
2018-07-31T15:49:05.156Z,99424.43
2018-07-31T15:51:33.940Z,99423.61
2018-07-31T15:54:02.468Z,99419.85
2018-07-31T15:56:31.301Z,99423.82
2018-07-31T15:59:00.820Z,99420.42
2018-07-31T16:01:29.668Z,99414.09
2018-07-31T16:03:58.802Z,99420.95
2018-07-31T16:06:27.397Z,99415.06
2018-07-31T16:08:56.487Z,99414.08
2018-07-31T16:11:25.980Z,99412.24
2018-07-31T16:13:55.353Z,99418.53
2018-07-31T16:16:24.128Z,99418.98
2018-07-31T16:18:54.044Z,99416.89
2018-07-31T16:21:22.619Z,99417.72
2018-07-31T16:23:53.716Z,99411.28
2018-07-31T16:26:22.211Z,99417.38
2018-07-31T16:28:51.505Z,99408.95
2018-07-31T16:31:21.086Z,99406.45
2018-07-31T16:33:50.611Z,99414.36
2018-07-31T16:36:20.004Z,99402.19
2018-07-31T16:38:48.852Z,99404.14
2018-07-31T16:41:17.614Z,99405.16
2018-07-31T16:43:46.248Z,99398.80
2018-07-31T16:46:14.850Z,99406.33
2018-07-31T16:48:43.372Z,99399.94
2018-07-31T16:51:12.460Z,99403.48
2018-07-31T16:53:41.016Z,99401.55
2018-07-31T16:56:10.209Z,99403.64
2018-07-31T16:58:38.957Z,99409.18
2018-07-31T17:01:13.374Z,99406.37
2018-07-31T17:03:43.539Z,99412.71
2018-07-31T17:06:12.412Z,99408.11
2018-07-31T17:08:42.874Z,99411.69
2018-07-31T17:11:13.402Z,99414.45
2018-07-31T17:13:42.046Z,99422.08
2018-07-31T17:16:10.773Z,99420.81
2018-07-31T17:18:41.561Z,99427.39
2018-07-31T17:21:11.063Z,99428.73
2018-07-31T17:23:40.447Z,99425.84
2018-07-31T17:26:09.169Z,99421.08
2018-07-31T17:28:39.486Z,99429.69
2018-07-31T17:31:08.453Z,99434.08
2018-07-31T17:33:37.224Z,99432.47
2018-07-31T17:36:06.918Z,99429.08
2018-07-31T17:38:37.291Z,99431.00
2018-07-31T17:41:06.568Z,99424.11
2018-07-31T17:43:39.498Z,99426.34
2018-07-31T17:46:09.207Z,99431.61
2018-07-31T17:48:37.764Z,99433.50
2018-07-31T17:51:07.837Z,99433.95
2018-07-31T17:53:37.118Z,99433.20
2018-07-31T17:56:05.759Z,99433.80
2018-07-31T17:58:34.333Z,99440.74
2018-07-31T18:01:02.864Z,99441.80
2018-07-31T18:03:31.475Z,99431.29
2018-07-31T18:05:59.995Z,99440.62
2018-07-31T18:08:28.628Z,99441.82
2018-07-31T18:10:57.173Z,99439.78
2018-07-31T18:13:25.752Z,99438.47
2018-07-31T18:15:54.275Z,99432.22
2018-07-31T18:18:22.845Z,99432.86
2018-07-31T18:20:51.376Z,99425.80
2018-07-31T18:23:19.935Z,99428.47
2018-07-31T18:25:48.474Z,99430.56
2018-07-31T18:28:17.060Z,99432.36
2018-07-31T18:30:45.602Z,99428.96
2018-07-31T18:33:14.637Z,99428.86
2018-07-31T18:35:43.174Z,99429.05
2018-07-31T18:38:11.724Z,99430.28
2018-07-31T18:40:40.257Z,99433.34
2018-07-31T18:43:08.845Z,99432.02
2018-07-31T18:45:37.761Z,99433.23
2018-07-31T18:48:06.320Z,99432.97
2018-07-31T18:50:34.937Z,99429.73
2018-07-31T18:53:03.461Z,99434.21
2018-07-31T18:55:32.073Z,99435.95
2018-07-31T18:58:01.879Z,99442.88
2018-07-31T19:00:30.585Z,99445.50
2018-07-31T19:03:00.472Z,99437.23
2018-07-31T19:05:29.086Z,99447.52
2018-07-31T19:07:57.620Z,99444.94
2018-07-31T19:10:26.188Z,99450.12
2018-07-31T19:12:54.712Z,99450.41
2018-07-31T19:15:23.344Z,99453.42
2018-07-31T19:17:51.875Z,99455.90
2018-07-31T19:20:20.433Z,99453.02
2018-07-31T19:22:48.968Z,99454.66
2018-07-31T19:25:17.532Z,99454.88
2018-07-31T19:27:46.140Z,99455.68
2018-07-31T19:30:14.695Z,99458.16
2018-07-31T19:32:43.213Z,99461.83
2018-07-31T19:35:11.789Z,99456.45
2018-07-31T19:37:40.325Z,99459.19
2018-07-31T19:40:08.882Z,99464.08
2018-07-31T19:42:37.418Z,99468.52
2018-07-31T19:45:06.049Z,99469.14
2018-07-31T19:47:34.540Z,99477.31
2018-07-31T19:50:03.088Z,99477.80
2018-07-31T19:52:31.626Z,99480.13
2018-07-31T19:55:00.204Z,99489.84
2018-07-31T19:57:28.664Z,99494.38
2018-07-31T19:59:57.192Z,99491.58
2018-07-31T20:02:25.677Z,99502.80
2018-07-31T20:04:54.225Z,99493.76
2018-07-31T20:07:22.743Z,99494.88
2018-07-31T20:09:51.276Z,99505.31
2018-07-31T20:12:19.787Z,99506.03
2018-07-31T20:14:48.357Z,99504.34
2018-07-31T20:17:30.068Z,99513.95
2018-07-31T20:20:26.093Z,99515.27
2018-07-31T20:22:54.584Z,99518.88
2018-07-31T20:25:23.149Z,99523.33
2018-07-31T20:27:51.641Z,99522.69
2018-07-31T20:30:20.168Z,99526.48
2018-07-31T20:32:48.664Z,99525.69
2018-07-31T20:35:18.556Z,99534.05
2018-07-31T20:37:47.396Z,99531.39
2018-07-31T20:40:16.708Z,99530.88
2018-07-31T20:42:45.252Z,99529.53
2018-07-31T20:45:14.677Z,99533.27
2018-07-31T20:47:43.216Z,99528.61
2018-07-31T20:50:11.787Z,99531.57
2018-07-31T20:52:40.316Z,99533.75
2018-07-31T20:55:08.932Z,99539.27
2018-07-31T20:57:37.480Z,99532.15
2018-07-31T21:00:06.567Z,99531.85
2018-07-31T21:02:35.184Z,99528.48
2018-07-31T21:05:03.844Z,99525.48
2018-07-31T21:07:32.381Z,99522.66
2018-07-31T21:10:01.134Z,99526.50
2018-07-31T21:12:29.669Z,99536.63
2018-07-31T21:14:59.771Z,99540.81
2018-07-31T21:17:30.125Z,99540.78
2018-07-31T21:20:04.173Z,99548.17
2018-07-31T21:22:32.931Z,99551.47
2018-07-31T21:25:01.456Z,99544.37
2018-07-31T21:27:30.024Z,99542.42
2018-07-31T21:29:58.597Z,99540.36
2018-07-31T21:32:29.517Z,99539.88
2018-07-31T21:34:58.415Z,99542.64
2018-07-31T21:37:27.153Z,99543.11
2018-07-31T21:39:57.111Z,99539.39
2018-07-31T21:42:36.573Z,99541.53
2018-07-31T21:45:15.168Z,99546.34
2018-07-31T21:47:53.168Z,99549.57
2018-07-31T21:50:25.729Z,99551.84
2018-07-31T21:52:58.601Z,99550.68
2018-07-31T21:55:30.999Z,99547.51
2018-07-31T21:58:00.484Z,99543.14
2018-07-31T22:00:36.283Z,99543.41
2018-07-31T22:03:07.740Z,99542.43
2018-07-31T22:05:41.638Z,99548.17
2018-07-31T22:08:11.384Z,99542.14
2018-07-31T22:10:39.925Z,99541.81
2018-07-31T22:13:09.253Z,99553.36
2018-07-31T22:15:38.573Z,99549.34
2018-07-31T22:18:08.225Z,99548.66
2018-07-31T22:20:39.006Z,99559.70
2018-07-31T22:23:09.504Z,99553.34
2018-07-31T22:25:40.085Z,99558.70
2018-07-31T22:28:09.340Z,99553.36
2018-07-31T22:30:39.995Z,99563.56
2018-07-31T22:33:10.871Z,99553.00
2018-07-31T22:35:40.989Z,99565.05
2018-07-31T22:38:11.179Z,99563.55
2018-07-31T22:40:42.104Z,99561.66
2018-07-31T22:43:11.619Z,99560.91
2018-07-31T22:45:43.960Z,99562.73
2018-07-31T22:48:13.424Z,99566.91
2018-07-31T22:50:43.230Z,99567.25
2018-07-31T22:53:13.254Z,99573.25
2018-07-31T22:55:46.673Z,99568.90
2018-07-31T22:58:17.770Z,99568.24
2018-07-31T23:00:47.939Z,99571.36
2018-07-31T23:03:18.844Z,99566.72
2018-07-31T23:05:48.661Z,99570.19
2018-07-31T23:08:19.732Z,99564.73
2018-07-31T23:10:52.427Z,99573.60
2018-07-31T23:13:26.004Z,99581.47
2018-07-31T23:15:56.227Z,99582.47
2018-07-31T23:18:27.802Z,99582.56
2018-07-31T23:20:58.389Z,99577.78
2018-07-31T23:23:29.168Z,99587.41
2018-07-31T23:25:59.942Z,99590.66
2018-07-31T23:28:33.046Z,99600.52
2018-07-31T23:31:02.233Z,99603.20
2018-07-31T23:33:31.090Z,99595.36
2018-07-31T23:36:01.785Z,99595.19
2018-07-31T23:38:32.157Z,99600.89
2018-07-31T23:41:00.684Z,99595.53
2018-07-31T23:43:29.229Z,99590.85
2018-07-31T23:45:57.753Z,99587.17
2018-07-31T23:48:26.243Z,99587.66
2018-07-31T23:50:55.033Z,99584.48
2018-07-31T23:53:23.548Z,99577.27
2018-07-31T23:55:52.044Z,99582.98
2018-07-31T23:58:20.571Z,99582.80
